Time;durP1;ratioP1;P1;durP2;ratioP2;P2;SDS_P1;SDS_P2;PMS_P1;PMS_P2;Temp;Humidity;BMP_temperature;BMP_pressure;BME280_temperature;BME280_humidity;BME280_pressure;Samples;Min_cycle;Max_cycle;Signal;HPM_P1;HPM_P2
2021/11/10 00:02:07;;;;;;;16.27;9.77;;;9.80;99.90;;;;;;5039684;28;20201;-73
2021/11/10 00:04:35;;;;;;;14.77;8.93;;;9.80;99.90;;;;;;5046428;28;20304;-73
2021/11/10 00:07:02;;;;;;;11.47;7.40;;;9.80;99.90;;;;;;5048378;28;20572;-72
2021/11/10 00:09:29;;;;;;;14.73;8.83;;;9.80;99.90;;;;;;5063440;28;20230;-73
2021/11/10 00:11:59;;;;;;;10.90;7.60;;;9.90;99.90;;;;;;5059569;28;20762;-73
2021/11/10 00:14:26;;;;;;;9.10;6.90;;;9.90;99.90;;;;;;5049314;28;20206;-73
2021/11/10 00:16:55;;;;;;;13.30;7.73;;;9.90;99.90;;;;;;5048142;28;20216;-73
2021/11/10 00:19:22;;;;;;;9.50;7.27;;;9.90;99.90;;;;;;5045883;28;20250;-73
2021/11/10 00:21:50;;;;;;;12.17;7.33;;;9.90;99.90;;;;;;5052884;28;20208;-73
2021/11/10 00:24:17;;;;;;;10.87;6.97;;;9.80;99.90;;;;;;5043229;28;20203;-72
2021/11/10 00:26:44;;;;;;;11.87;7.87;;;9.80;99.90;;;;;;5056172;28;20229;-73
2021/11/10 00:29:13;;;;;;;14.10;8.80;;;9.80;99.90;;;;;;5046895;28;20212;-73
2021/11/10 00:31:40;;;;;;;12.93;8.30;;;9.70;99.90;;;;;;5047379;28;20202;-73
2021/11/10 00:34:07;;;;;;;12.57;7.93;;;9.80;99.90;;;;;;5046302;28;20220;-72
2021/11/10 00:36:34;;;;;;;15.90;9.10;;;9.70;99.90;;;;;;5046674;28;20374;-72
2021/11/10 00:39:01;;;;;;;16.37;9.00;;;9.70;99.90;;;;;;5045764;28;20348;-73
2021/11/10 00:41:28;;;;;;;13.43;8.93;;;9.70;99.90;;;;;;5039826;28;20280;-73
2021/11/10 00:43:59;;;;;;;14.13;8.10;;;9.70;99.90;;;;;;5052637;28;20229;-73
2021/11/10 00:46:28;;;;;;;9.67;7.53;;;9.70;99.90;;;;;;5066225;28;20236;-73
2021/11/10 00:48:55;;;;;;;12.23;7.77;;;9.70;99.90;;;;;;5048856;28;20204;-73
2021/11/10 00:51:22;;;;;;;10.47;7.27;;;9.60;99.90;;;;;;5050593;28;20226;-72
2021/11/10 00:53:49;;;;;;;11.80;7.37;;;9.60;99.90;;;;;;5049548;28;20301;-72
2021/11/10 00:56:16;;;;;;;14.63;8.80;;;9.60;99.90;;;;;;5044920;28;20294;-73
2021/11/10 00:58:43;;;;;;;15.60;8.77;;;9.60;99.90;;;;;;5061118;28;20257;-73
2021/11/10 01:01:11;;;;;;;16.67;9.47;;;9.50;99.90;;;;;;5044242;28;20225;-72
2021/11/10 01:03:39;;;;;;;15.90;9.53;;;9.60;99.90;;;;;;5049609;28;20238;-72
2021/11/10 01:06:06;;;;;;;18.23;11.17;;;9.50;99.90;;;;;;5050563;28;20198;-72
2021/11/10 01:08:33;;;;;;;18.07;9.80;;;9.50;99.90;;;;;;5047101;28;20306;-72
2021/11/10 01:11:01;;;;;;;12.83;8.33;;;9.50;99.90;;;;;;5063058;28;20395;-72
2021/11/10 01:13:29;;;;;;;13.40;8.40;;;9.40;99.90;;;;;;5047766;28;20211;-73
2021/11/10 01:15:59;;;;;;;15.13;9.20;;;9.40;99.90;;;;;;5063640;28;20210;-73
2021/11/10 01:18:26;;;;;;;15.27;9.40;;;9.40;99.90;;;;;;5049693;28;20231;-73
2021/11/10 01:21:00;;;;;;;17.17;10.47;;;9.40;99.90;;;;;;5050459;28;20215;-73
2021/11/10 01:23:28;;;;;;;13.23;8.33;;;9.40;99.90;;;;;;5049939;28;20288;-73
2021/11/10 01:25:55;;;;;;;16.43;8.50;;;9.40;99.90;;;;;;5049301;28;20300;-73
2021/11/10 01:28:23;;;;;;;12.37;7.67;;;9.40;99.90;;;;;;5060609;28;20208;-73
2021/11/10 01:30:50;;;;;;;11.53;7.60;;;9.30;99.90;;;;;;5048290;28;20227;-73
2021/11/10 01:33:18;;;;;;;13.50;8.43;;;9.30;99.90;;;;;;5050347;28;20228;-73
2021/11/10 01:35:45;;;;;;;13.07;8.10;;;9.40;99.90;;;;;;5049417;28;20205;-73
2021/11/10 01:38:19;;;;;;;19.30;10.30;;;9.30;99.90;;;;;;5049915;28;20214;-72
2021/11/10 01:40:47;;;;;;;16.27;9.40;;;9.30;99.90;;;;;;5049029;28;20261;-73
2021/11/10 01:43:15;;;;;;;15.60;9.20;;;9.30;99.90;;;;;;5054529;28;20798;-73
2021/11/10 01:45:46;;;;;;;15.90;8.60;;;9.30;99.90;;;;;;5048818;28;20236;-73
2021/11/10 01:48:14;;;;;;;15.57;9.57;;;9.30;99.90;;;;;;5049608;28;20302;-72
2021/11/10 01:50:42;;;;;;;17.47;9.53;;;9.30;99.90;;;;;;5043787;28;20225;-73
2021/11/10 01:53:11;;;;;;;14.53;8.73;;;9.20;99.90;;;;;;5060224;28;20215;-73
2021/11/10 01:55:40;;;;;;;15.73;9.77;;;9.20;99.90;;;;;;5053752;28;20205;-73
2021/11/10 01:58:07;;;;;;;15.13;8.73;;;9.10;99.90;;;;;;5049162;28;20689;-73
2021/11/10 02:00:38;;;;;;;16.60;10.07;;;9.10;99.90;;;;;;5048229;28;20205;-73
2021/11/10 02:03:10;;;;;;;16.00;9.57;;;9.10;99.90;;;;;;5049780;28;20209;-73
2021/11/10 02:05:47;;;;;;;12.97;8.13;;;9.10;99.90;;;;;;5041891;28;20202;-72
2021/11/10 02:08:29;;;;;;;18.17;10.77;;;9.00;99.90;;;;;;5052963;28;20667;-73
2021/11/10 02:11:00;;;;;;;19.10;10.83;;;9.00;99.90;;;;;;5044202;28;20230;-73
2021/11/10 02:13:28;;;;;;;17.63;9.57;;;8.90;99.90;;;;;;5048927;28;20206;-72
2021/11/10 02:15:55;;;;;;;15.67;9.03;;;8.90;99.90;;;;;;5056831;28;20233;-73
2021/11/10 02:18:22;;;;;;;14.77;9.00;;;8.80;99.90;;;;;;5048509;28;20284;-73
2021/11/10 02:20:56;;;;;;;16.90;10.57;;;8.80;99.90;;;;;;5048656;28;20244;-73
2021/11/10 02:23:23;;;;;;;14.80;9.37;;;8.80;99.90;;;;;;5049164;28;20637;-73
2021/11/10 02:25:57;;;;;;;16.97;10.10;;;8.70;99.90;;;;;;5058420;28;20213;-73
2021/11/10 02:28:24;;;;;;;18.43;9.83;;;8.70;99.90;;;;;;5048220;28;20214;-73
2021/11/10 02:30:51;;;;;;;16.23;10.43;;;8.70;99.90;;;;;;5047852;28;20218;-73
2021/11/10 02:33:27;;;;;;;21.10;11.10;;;8.60;99.90;;;;;;5049630;28;20294;-73
2021/11/10 02:36:01;;;;;;;19.93;10.23;;;8.60;99.90;;;;;;5050343;28;20190;-73
2021/11/10 02:38:29;;;;;;;16.37;9.47;;;8.60;99.90;;;;;;5049744;28;20279;-73
2021/11/10 02:41:00;;;;;;;21.60;9.70;;;8.60;99.90;;;;;;5057637;28;20202;-73
2021/11/10 02:43:28;;;;;;;16.03;9.77;;;8.60;99.90;;;;;;5044695;28;20277;-73
2021/11/10 02:45:56;;;;;;;16.47;9.30;;;8.50;99.90;;;;;;5048209;28;20630;-73
2021/11/10 02:48:24;;;;;;;16.00;9.07;;;8.50;99.90;;;;;;5046434;28;20202;-73
2021/11/10 02:50:51;;;;;;;14.97;9.43;;;8.50;99.90;;;;;;5048186;28;20265;-73
2021/11/10 02:53:20;;;;;;;15.43;9.20;;;8.50;99.90;;;;;;5047914;28;20552;-73
2021/11/10 02:55:47;;;;;;;19.90;10.20;;;8.40;99.90;;;;;;5048265;28;20198;-73
2021/11/10 02:58:14;;;;;;;17.40;9.60;;;8.40;99.90;;;;;;5048274;28;20956;-73
2021/11/10 03:00:41;;;;;;;15.13;9.37;;;8.40;99.90;;;;;;5043643;28;20630;-72
2021/11/10 03:03:09;;;;;;;18.60;10.33;;;8.40;99.90;;;;;;5045091;28;20203;-72
2021/11/10 03:05:47;;;;;;;18.43;10.70;;;8.30;99.90;;;;;;5047347;28;20205;-73
2021/11/10 03:08:19;;;;;;;20.37;11.50;;;8.30;99.90;;;;;;5048022;28;20220;-72
2021/11/10 03:10:52;;;;;;;17.30;10.03;;;8.30;99.90;;;;;;5047147;28;20237;-73
2021/11/10 03:13:20;;;;;;;22.27;11.83;;;8.20;99.90;;;;;;5059931;28;20230;-73
2021/11/10 03:15:48;;;;;;;24.97;12.83;;;8.20;99.90;;;;;;5047496;28;20208;-72
2021/11/10 03:18:16;;;;;;;23.27;12.80;;;8.10;99.90;;;;;;5048061;28;20209;-73
2021/11/10 03:20:43;;;;;;;22.97;12.77;;;8.10;99.90;;;;;;5046672;28;20714;-73
2021/11/10 03:23:11;;;;;;;26.40;13.93;;;8.10;99.90;;;;;;5047642;28;20252;-73
2021/11/10 03:25:42;;;;;;;24.27;12.90;;;8.00;99.90;;;;;;5047534;28;20198;-73
2021/11/10 03:28:09;;;;;;;23.20;11.77;;;8.00;99.90;;;;;;5047708;28;20202;-73
2021/11/10 03:30:36;;;;;;;23.00;13.03;;;7.90;99.90;;;;;;5046141;28;20253;-73
2021/11/10 03:33:06;;;;;;;20.50;12.03;;;7.90;99.90;;;;;;5047978;28;20747;-72
2021/11/10 03:35:34;;;;;;;24.40;12.80;;;7.90;99.90;;;;;;5047086;28;20624;-73
2021/11/10 03:38:05;;;;;;;24.53;12.97;;;7.80;99.90;;;;;;5048308;28;20229;-73
2021/11/10 03:40:33;;;;;;;24.07;11.97;;;7.80;99.90;;;;;;5047228;28;20205;-73
2021/11/10 03:43:01;;;;;;;21.10;11.13;;;7.70;99.90;;;;;;5038901;28;20208;-73
2021/11/10 03:45:32;;;;;;;22.97;11.70;;;7.70;99.90;;;;;;5046838;28;20598;-73
2021/11/10 03:48:04;;;;;;;25.43;12.13;;;7.70;99.90;;;;;;5044849;28;20206;-72
2021/11/10 03:50:32;;;;;;;20.67;11.33;;;7.70;99.90;;;;;;5045697;28;20232;-72
2021/11/10 03:52:59;;;;;;;28.60;13.23;;;7.60;99.90;;;;;;5047799;28;20193;-72
2021/11/10 03:55:35;;;;;;;24.23;11.83;;;7.70;99.90;;;;;;5044801;28;20707;-72
2021/11/10 03:58:05;;;;;;;23.40;11.53;;;7.60;99.90;;;;;;5047695;28;20374;-72
2021/11/10 04:00:32;;;;;;;19.30;10.20;;;7.60;99.90;;;;;;5045966;28;20554;-72
2021/11/10 04:02:59;;;;;;;23.27;11.20;;;7.60;99.90;;;;;;5047684;28;20193;-72
2021/11/10 04:05:32;;;;;;;26.50;12.43;;;7.60;99.90;;;;;;5046727;28;20210;-72
2021/11/10 04:08:00;;;;;;;30.87;13.47;;;7.50;99.90;;;;;;5047307;28;20213;-72
2021/11/10 04:10:27;;;;;;;29.33;14.07;;;7.50;99.90;;;;;;5045743;28;20283;-72
2021/11/10 04:12:56;;;;;;;26.40;12.80;;;7.50;99.90;;;;;;5054804;28;20296;-72
2021/11/10 04:15:25;;;;;;;26.57;12.47;;;7.40;99.90;;;;;;5046527;28;20558;-72
2021/11/10 04:17:52;;;;;;;24.73;11.73;;;7.40;99.90;;;;;;5046985;28;20224;-72
2021/11/10 04:20:19;;;;;;;17.23;9.63;;;7.40;99.90;;;;;;5046117;28;20266;-72
2021/11/10 04:22:47;;;;;;;25.50;11.60;;;7.40;99.90;;;;;;5046544;28;20269;-72
2021/11/10 04:25:14;;;;;;;23.47;11.03;;;7.30;99.90;;;;;;5046869;28;20561;-72
2021/11/10 04:27:41;;;;;;;22.97;10.77;;;7.30;99.90;;;;;;5048242;28;20420;-72
2021/11/10 04:30:11;;;;;;;26.13;11.90;;;7.30;99.90;;;;;;5047314;28;20197;-72
2021/11/10 04:32:41;;;;;;;20.63;10.77;;;7.30;99.90;;;;;;5048320;28;20327;-72
2021/11/10 04:35:10;;;;;;;20.43;10.73;;;7.30;99.90;;;;;;5046559;28;20266;-72
2021/11/10 04:37:39;;;;;;;27.73;12.53;;;7.30;99.90;;;;;;5034674;28;20694;-72
2021/11/10 04:40:09;;;;;;;26.77;13.00;;;7.20;99.90;;;;;;5040635;28;20723;-72
2021/11/10 04:42:39;;;;;;;24.23;11.87;;;7.10;99.90;;;;;;5046272;28;20204;-72
2021/11/10 04:45:11;;;;;;;23.53;12.40;;;7.10;99.90;;;;;;5046798;28;20391;-73
2021/11/10 04:47:39;;;;;;;25.00;13.00;;;7.10;99.90;;;;;;5036311;28;20320;-71
2021/11/10 04:50:09;;;;;;;23.30;12.17;;;7.00;99.90;;;;;;5047406;28;20224;-72
2021/11/10 04:52:37;;;;;;;24.23;11.90;;;7.00;99.90;;;;;;5037901;28;20313;-72
2021/11/10 04:55:06;;;;;;;21.93;10.57;;;7.00;99.90;;;;;;5048035;28;20228;-72
2021/11/10 04:57:34;;;;;;;20.47;10.33;;;6.90;99.90;;;;;;5046373;28;20236;-72
2021/11/10 05:00:01;;;;;;;21.83;10.90;;;6.90;99.90;;;;;;5045976;28;20763;-72
2021/11/10 05:02:31;;;;;;;19.90;10.13;;;6.80;99.90;;;;;;5037295;28;20350;-72
2021/11/10 05:05:00;;;;;;;17.63;9.77;;;6.80;99.90;;;;;;5046138;28;20266;-71
2021/11/10 05:07:30;;;;;;;22.13;11.60;;;6.80;99.90;;;;;;5046821;28;20200;-72
2021/11/10 05:09:58;;;;;;;20.83;10.83;;;6.80;99.90;;;;;;5046183;28;20303;-72
2021/11/10 05:12:26;;;;;;;24.97;12.23;;;6.80;99.90;;;;;;5046497;28;20240;-72
2021/11/10 05:14:55;;;;;;;21.53;11.07;;;6.70;99.90;;;;;;5045529;28;20269;-73
2021/11/10 05:17:23;;;;;;;21.93;11.97;;;6.70;99.90;;;;;;5047152;28;20219;-72
2021/11/10 05:19:51;;;;;;;23.93;11.40;;;6.60;99.90;;;;;;5040149;28;20225;-72
2021/11/10 05:22:21;;;;;;;19.87;10.70;;;6.60;99.90;;;;;;5045969;28;20228;-72
2021/11/10 05:24:48;;;;;;;19.93;10.53;;;6.60;99.90;;;;;;5046302;28;20244;-72
2021/11/10 05:27:16;;;;;;;18.97;10.50;;;6.60;99.90;;;;;;5056307;28;20609;-72
2021/11/10 05:29:43;;;;;;;15.60;8.90;;;6.60;99.90;;;;;;5048168;28;20252;-72
2021/11/10 05:32:10;;;;;;;14.93;8.87;;;6.60;99.90;;;;;;5060761;28;20256;-72
2021/11/10 05:34:37;;;;;;;18.47;9.40;;;6.60;99.90;;;;;;5049451;28;20209;-72
2021/11/10 05:37:05;;;;;;;19.47;8.03;;;6.60;99.90;;;;;;5045685;28;20573;-72
2021/11/10 05:39:33;;;;;;;16.10;9.47;;;6.50;99.90;;;;;;5051522;28;20252;-72
2021/11/10 05:42:00;;;;;;;17.17;9.30;;;6.50;99.90;;;;;;5048176;28;20213;-72
2021/11/10 05:44:27;;;;;;;19.47;10.23;;;6.50;99.90;;;;;;5049239;28;20219;-72
2021/11/10 05:46:54;;;;;;;20.00;10.53;;;6.50;99.90;;;;;;5066374;28;20339;-72
2021/11/10 05:49:21;;;;;;;23.03;10.93;;;6.40;99.90;;;;;;5049158;28;20292;-72
2021/11/10 05:51:48;;;;;;;21.40;11.27;;;6.40;99.90;;;;;;5050574;28;20685;-73
2021/11/10 05:54:15;;;;;;;16.60;9.03;;;6.40;99.90;;;;;;5049285;28;20729;-72
2021/11/10 05:56:46;;;;;;;17.17;9.63;;;6.40;99.90;;;;;;5049450;28;20202;-73
2021/11/10 05:59:14;;;;;;;16.33;8.87;;;6.40;99.90;;;;;;5063622;28;20243;-72
2021/11/10 06:01:41;;;;;;;17.50;10.10;;;6.40;99.90;;;;;;5048995;28;20203;-72
2021/11/10 06:04:10;;;;;;;19.17;10.60;;;6.40;99.90;;;;;;5048940;28;20730;-72
2021/11/10 06:06:37;;;;;;;18.80;9.97;;;6.40;99.90;;;;;;5059662;28;20286;-72
2021/11/10 06:09:04;;;;;;;25.37;12.90;;;6.30;99.90;;;;;;5056396;28;20209;-72
2021/11/10 06:11:31;;;;;;;23.83;12.60;;;6.30;99.90;;;;;;5047440;28;20315;-72
2021/11/10 06:14:00;;;;;;;23.30;12.23;;;6.30;99.90;;;;;;5048097;28;20379;-72
2021/11/10 06:16:27;;;;;;;27.17;14.07;;;6.20;99.90;;;;;;5049272;28;20218;-72
2021/11/10 06:18:54;;;;;;;22.63;12.13;;;6.30;99.90;;;;;;5060376;28;20751;-72
2021/11/10 06:21:21;;;;;;;25.73;12.70;;;6.20;99.90;;;;;;5060342;28;20210;-72
2021/11/10 06:23:48;;;;;;;20.03;9.73;;;6.20;99.90;;;;;;5048542;28;20208;-73
2021/11/10 06:26:15;;;;;;;23.10;11.63;;;6.20;99.90;;;;;;5048357;28;20203;-72
2021/11/10 06:28:42;;;;;;;21.33;10.13;;;6.30;99.90;;;;;;5041127;28;20216;-73
2021/11/10 06:31:11;;;;;;;19.27;9.80;;;6.30;99.90;;;;;;5050074;28;20220;-72
2021/11/10 06:33:38;;;;;;;20.50;10.87;;;6.30;99.90;;;;;;5044869;28;20204;-72
2021/11/10 06:36:06;;;;;;;22.73;12.40;;;6.30;99.90;;;;;;5048837;28;20669;-72
2021/11/10 06:38:33;;;;;;;22.30;11.30;;;6.30;99.90;;;;;;5048350;28;20232;-72
2021/11/10 06:41:00;;;;;;;21.23;11.67;;;6.30;99.90;;;;;;5047589;28;20210;-72
2021/11/10 06:43:28;;;;;;;21.60;11.37;;;6.40;99.90;;;;;;5047659;28;20295;-72
2021/11/10 06:45:55;;;;;;;17.03;9.93;;;6.40;99.90;;;;;;5037955;28;20681;-72
2021/11/10 06:48:24;;;;;;;16.37;9.67;;;6.40;99.90;;;;;;5060327;28;20211;-72
2021/11/10 06:50:51;;;;;;;19.43;10.00;;;6.40;99.90;;;;;;5053880;28;20200;-72
2021/11/10 06:53:18;;;;;;;21.00;12.23;;;6.50;99.90;;;;;;5049479;28;20216;-72
2021/11/10 06:55:45;;;;;;;21.40;11.80;;;6.50;99.90;;;;;;5047918;28;20205;-72
2021/11/10 06:58:13;;;;;;;27.40;14.13;;;6.60;99.90;;;;;;5049953;28;20203;-72
2021/11/10 07:00:40;;;;;;;25.83;13.43;;;6.60;99.90;;;;;;5047723;28;20224;-72
2021/11/10 07:03:08;;;;;;;24.67;13.17;;;6.60;99.90;;;;;;5062712;28;20202;-72
2021/11/10 07:05:37;;;;;;;20.93;11.43;;;6.60;99.90;;;;;;5047336;28;20204;-72
2021/11/10 07:08:04;;;;;;;20.37;11.63;;;6.70;99.90;;;;;;5048696;28;20217;-72
2021/11/10 07:10:31;;;;;;;17.63;10.47;;;6.70;99.90;;;;;;5032935;28;20585;-72
2021/11/10 07:12:58;;;;;;;18.93;10.30;;;6.80;99.90;;;;;;5043016;28;20216;-72
2021/11/10 07:15:25;;;;;;;19.53;10.60;;;6.90;99.90;;;;;;5039612;28;20208;-72
2021/11/10 07:17:52;;;;;;;22.27;11.67;;;7.00;99.90;;;;;;5044099;28;20648;-72
2021/11/10 07:20:20;;;;;;;22.17;11.80;;;7.00;99.90;;;;;;5036109;28;20573;-72
2021/11/10 07:22:48;;;;;;;21.30;11.73;;;7.00;99.90;;;;;;5039923;28;20208;-72
2021/11/10 07:25:15;;;;;;;19.97;11.03;;;7.10;99.90;;;;;;5045163;28;20679;-72
2021/11/10 07:27:43;;;;;;;20.07;11.03;;;7.10;99.90;;;;;;5042906;28;20198;-72
2021/11/10 07:30:13;;;;;;;25.90;13.77;;;7.20;99.90;;;;;;5045414;28;20210;-71
2021/11/10 07:32:40;;;;;;;24.23;12.70;;;7.20;99.90;;;;;;5043487;28;20571;-72
2021/11/10 07:35:08;;;;;;;22.70;12.03;;;7.30;99.90;;;;;;5031229;28;20285;-71
2021/11/10 07:37:36;;;;;;;24.93;13.00;;;7.30;99.90;;;;;;5044923;28;20201;-71
2021/11/10 07:40:05;;;;;;;26.13;14.15;;;7.40;99.90;;;;;;5043216;28;20529;-72
2021/11/10 07:42:33;;;;;;;24.07;14.00;;;7.50;99.90;;;;;;5037194;28;20195;-72
2021/11/10 07:45:07;;;;;;;23.97;12.87;;;7.50;99.90;;;;;;5037418;28;20213;-72
2021/11/10 07:47:40;;;;;;;22.83;12.47;;;7.60;99.90;;;;;;5036842;28;20217;-72
2021/11/10 07:50:10;;;;;;;27.73;15.03;;;7.70;99.90;;;;;;5036830;28;20201;-71
2021/11/10 07:52:37;;;;;;;27.17;14.67;;;7.80;99.90;;;;;;5044451;28;20213;-72
2021/11/10 07:55:07;;;;;;;29.53;14.73;;;7.80;99.90;;;;;;5041639;28;20237;-72
2021/11/10 07:57:35;;;;;;;28.33;15.57;;;7.90;99.90;;;;;;5034981;28;20198;-72
2021/11/10 08:00:04;;;;;;;28.30;15.70;;;7.90;99.90;;;;;;5038711;28;20205;-72
2021/11/10 08:02:39;;;;;;;26.87;14.13;;;8.00;99.90;;;;;;5045357;28;20339;-72
2021/11/10 08:05:08;;;;;;;24.23;13.53;;;8.10;99.90;;;;;;5058162;28;20674;-72
2021/11/10 08:07:35;;;;;;;27.53;14.43;;;8.20;99.90;;;;;;5044352;28;20209;-72
2021/11/10 08:10:02;;;;;;;27.13;14.03;;;8.30;99.90;;;;;;5042186;28;20281;-72
2021/11/10 08:12:31;;;;;;;33.27;15.63;;;8.40;99.90;;;;;;5033587;28;20224;-72
2021/11/10 08:14:59;;;;;;;29.40;15.10;;;8.50;99.90;;;;;;5038774;28;20201;-72
2021/11/10 08:17:26;;;;;;;29.97;15.83;;;8.50;99.90;;;;;;5042698;28;20194;-72
2021/11/10 08:19:53;;;;;;;21.80;13.30;;;8.50;99.90;;;;;;5034011;28;20443;-72
2021/11/10 08:22:20;;;;;;;29.43;15.23;;;8.50;99.90;;;;;;5036963;28;20194;-72
2021/11/10 08:24:49;;;;;;;22.83;13.43;;;8.60;99.90;;;;;;5038470;28;20202;-72
2021/11/10 08:27:16;;;;;;;21.07;11.20;;;8.80;99.90;;;;;;5030055;28;20194;-73
2021/11/10 08:29:45;;;;;;;25.03;13.70;;;9.00;99.90;;;;;;5036997;28;20679;-71
2021/11/10 08:32:12;;;;;;;28.03;14.37;;;9.20;99.90;;;;;;5042952;28;20237;-72
2021/11/10 08:34:39;;;;;;;29.33;15.83;;;9.20;99.90;;;;;;5033525;28;20298;-72
2021/11/10 08:37:07;;;;;;;28.33;14.60;;;9.20;99.90;;;;;;5036044;28;20198;-72
2021/11/10 08:39:34;;;;;;;24.20;13.40;;;9.20;99.90;;;;;;5045746;28;20207;-72
2021/11/10 08:42:03;;;;;;;27.27;14.43;;;9.20;99.90;;;;;;5033254;28;20278;-72
2021/11/10 08:44:31;;;;;;;32.10;15.53;;;9.20;99.90;;;;;;5040304;28;20209;-73
2021/11/10 08:47:00;;;;;;;27.73;14.00;;;9.20;99.90;;;;;;5042109;28;20225;-71
2021/11/10 08:49:27;;;;;;;29.17;14.90;;;9.20;99.90;;;;;;5035674;28;20199;-72
2021/11/10 08:51:54;;;;;;;27.87;14.07;;;9.20;99.90;;;;;;5044945;28;20628;-72
2021/11/10 08:54:25;;;;;;;24.10;12.67;;;9.20;99.90;;;;;;5036544;28;20356;-72
2021/11/10 08:56:52;;;;;;;28.53;14.67;;;9.20;99.90;;;;;;5039241;28;20672;-71
2021/11/10 08:59:19;;;;;;;28.03;14.67;;;9.20;99.90;;;;;;5038751;28;20212;-72
2021/11/10 09:01:47;;;;;;;26.98;16.15;;;9.10;99.90;;;;;;5038377;28;20427;-73
2021/11/10 09:04:19;;;;;;;25.67;13.77;;;9.10;99.90;;;;;;5042949;28;20190;-72
2021/11/10 09:06:46;;;;;;;25.07;13.70;;;9.20;99.90;;;;;;5044449;28;20189;-72
2021/11/10 09:09:14;;;;;;;28.57;15.73;;;9.30;99.90;;;;;;5040901;28;20207;-72
2021/11/10 09:11:41;;;;;;;28.77;16.47;;;9.40;99.90;;;;;;5059503;28;20234;-72
2021/11/10 09:14:08;;;;;;;25.30;13.83;;;9.40;99.90;;;;;;5044194;28;20213;-72
2021/11/10 09:16:35;;;;;;;23.83;12.70;;;9.40;99.90;;;;;;5048693;28;20221;-72
2021/11/10 09:19:03;;;;;;;23.92;12.63;;;9.50;99.90;;;;;;5038660;28;20522;-72
2021/11/10 09:21:32;;;;;;;26.07;15.00;;;9.70;99.90;;;;;;5045660;28;20595;-72
2021/11/10 09:23:59;;;;;;;26.07;14.53;;;9.80;99.90;;;;;;5047542;28;20197;-72
2021/11/10 09:26:26;;;;;;;30.33;16.43;;;9.80;99.90;;;;;;5046218;28;20290;-72
2021/11/10 09:28:54;;;;;;;28.67;15.23;;;9.80;99.90;;;;;;5046544;28;20207;-72
2021/11/10 09:31:21;;;;;;;31.97;16.53;;;9.80;99.90;;;;;;5046295;28;20248;-72
2021/11/10 09:33:52;;;;;;;31.63;17.00;;;9.80;99.90;;;;;;5038469;28;20226;-72
2021/11/10 09:36:19;;;;;;;33.00;17.07;;;9.80;99.90;;;;;;5042199;28;20313;-72
2021/11/10 09:38:47;;;;;;;30.98;17.65;;;9.90;99.90;;;;;;5038847;28;20993;-72
2021/11/10 09:41:15;;;;;;;29.77;16.20;;;9.90;99.90;;;;;;5045711;28;20213;-72
2021/11/10 09:43:43;;;;;;;34.00;17.60;;;10.00;99.90;;;;;;5038450;28;20569;-72
2021/11/10 09:46:13;;;;;;;29.53;15.50;;;10.10;99.90;;;;;;5041458;28;20201;-72
2021/11/10 09:48:41;;;;;;;27.55;15.95;;;10.10;99.90;;;;;;5042715;28;20455;-73
2021/11/10 09:51:09;;;;;;;28.57;15.87;;;10.10;99.90;;;;;;5044424;28;20201;-72
2021/11/10 09:53:37;;;;;;;24.80;13.83;;;10.20;99.90;;;;;;5046131;28;20289;-71
2021/11/10 09:56:06;;;;;;;31.77;15.60;;;10.30;99.90;;;;;;5037632;28;20216;-72
2021/11/10 09:58:34;;;;;;;29.30;15.70;;;10.50;99.90;;;;;;5041251;28;20705;-71
2021/11/10 10:01:06;;;;;;;26.53;15.07;;;10.40;99.90;;;;;;5043960;28;20217;-72
2021/11/10 10:03:34;;;;;;;28.00;14.87;;;10.40;99.90;;;;;;5044019;28;20207;-72
2021/11/10 10:06:01;;;;;;;25.92;13.75;;;10.40;99.90;;;;;;5038116;28;20554;-71
2021/11/10 10:08:28;;;;;;;27.23;13.93;;;10.40;99.90;;;;;;5059622;28;20677;-72
2021/11/10 10:10:56;;;;;;;34.17;17.80;;;10.40;99.90;;;;;;5043344;28;20227;-72
2021/11/10 10:13:25;;;;;;;35.70;18.23;;;10.40;99.90;;;;;;5055428;28;20243;-73
2021/11/10 10:15:52;;;;;;;33.67;16.80;;;10.30;99.90;;;;;;5040338;28;20200;-73
2021/11/10 10:18:23;;;;;;;31.13;16.70;;;10.30;99.90;;;;;;5043082;28;20197;-73
2021/11/10 10:20:55;;;;;;;29.43;15.23;;;10.20;99.90;;;;;;5042426;28;20233;-71
2021/11/10 10:23:25;;;;;;;27.27;13.97;;;10.20;99.90;;;;;;5043328;28;20209;-71
2021/11/10 10:25:55;;;;;;;26.27;14.53;;;10.20;99.90;;;;;;5044848;28;20201;-71
2021/11/10 10:28:27;;;;;;;30.77;15.73;;;10.20;99.90;;;;;;5044966;28;20232;-72
2021/11/10 10:30:56;;;;;;;24.90;13.67;;;10.30;99.90;;;;;;5044873;28;20198;-71
2021/11/10 10:33:26;;;;;;;28.93;14.87;;;10.20;99.90;;;;;;5036884;28;20297;-71
2021/11/10 10:35:58;;;;;;;28.57;14.43;;;10.30;99.90;;;;;;5042502;28;20211;-71
2021/11/10 10:38:28;;;;;;;23.70;12.67;;;10.30;99.90;;;;;;5041958;28;20291;-71
2021/11/10 10:40:59;;;;;;;18.17;10.90;;;10.30;99.90;;;;;;5043870;28;20676;-71
2021/11/10 10:43:29;;;;;;;24.87;13.27;;;10.40;99.90;;;;;;5043269;28;20194;-71
2021/11/10 10:45:58;;;;;;;29.27;15.47;;;10.50;99.90;;;;;;5046199;28;20199;-71
2021/11/10 10:48:26;;;;;;;25.60;14.60;;;10.50;99.90;;;;;;5045762;28;20201;-72
2021/11/10 10:50:56;;;;;;;30.87;15.43;;;10.50;99.90;;;;;;5041623;28;20242;-72
2021/11/10 10:53:34;;;;;;;24.08;14.00;;;10.50;99.90;;;;;;5041909;28;20562;-72
2021/11/10 10:56:13;;;;;;;24.27;13.17;;;10.50;99.90;;;;;;5038257;28;20288;-72
2021/11/10 10:58:43;;;;;;;27.20;13.60;;;10.60;99.90;;;;;;5043813;28;20668;-72
2021/11/10 11:01:35;;;;;;;25.17;13.03;;;10.60;99.90;;;;;;5038555;28;20205;-72
2021/11/10 11:04:04;;;;;;;25.97;13.97;;;10.70;99.90;;;;;;5001541;28;20225;-72
2021/11/10 11:06:37;;;;;;;22.10;12.27;;;10.70;99.90;;;;;;4995042;28;20214;-71
2021/11/10 11:09:11;;;;;;;24.70;13.67;;;10.70;99.90;;;;;;5004832;28;20223;-72
2021/11/10 11:11:40;;;;;;;25.80;14.17;;;10.70;99.90;;;;;;4996872;28;20233;-72
2021/11/10 11:14:25;;;;;;;29.87;15.43;;;10.70;99.90;;;;;;4998320;28;20758;-72
2021/11/10 11:17:04;;;;;;;26.40;13.77;;;10.70;99.90;;;;;;5015132;28;20221;-72
2021/11/10 11:19:33;;;;;;;25.87;13.77;;;10.70;99.90;;;;;;5006823;28;20204;-72
2021/11/10 11:22:01;;;;;;;23.07;13.27;;;10.70;99.90;;;;;;5023013;28;20242;-72
2021/11/10 11:24:42;;;;;;;31.43;15.90;;;10.70;99.90;;;;;;5024288;28;20989;-72
2021/11/10 11:27:29;;;;;;;32.77;16.27;;;10.70;99.90;;;;;;5003563;28;20301;-72
2021/11/10 11:30:06;;;;;;;32.50;15.03;;;10.60;99.90;;;;;;5003106;28;20665;-72
2021/11/10 11:32:36;;;;;;;31.37;15.27;;;10.70;99.90;;;;;;5006944;28;20205;-72
2021/11/10 11:35:06;;;;;;;33.23;15.97;;;10.70;99.90;;;;;;5004507;28;20750;-72
2021/11/10 11:37:34;;;;;;;28.87;15.87;;;10.60;99.90;;;;;;5004298;28;20237;-72
2021/11/10 11:40:08;;;;;;;30.37;16.80;;;10.60;99.90;;;;;;5013247;28;20561;-72
2021/11/10 11:42:35;;;;;;;29.37;15.73;;;10.60;99.90;;;;;;5041677;28;20301;-72
2021/11/10 11:45:06;;;;;;;31.80;15.80;;;10.60;99.90;;;;;;5043357;28;20206;-72
2021/11/10 11:47:33;;;;;;;26.60;14.67;;;10.60;99.90;;;;;;5044045;28;20230;-72
2021/11/10 11:50:03;;;;;;;27.40;14.37;;;10.60;99.90;;;;;;5043859;28;20209;-72
2021/11/10 11:52:32;;;;;;;24.67;13.17;;;10.60;99.90;;;;;;5045144;28;20211;-72
2021/11/10 11:55:13;;;;;;;27.63;14.17;;;10.60;99.90;;;;;;5057977;28;20237;-72
2021/11/10 11:57:43;;;;;;;24.07;13.63;;;10.60;99.90;;;;;;5035031;28;20292;-72
2021/11/10 12:00:13;;;;;;;21.50;12.27;;;10.60;99.90;;;;;;5042262;28;20217;-72
2021/11/10 12:02:46;;;;;;;28.87;14.27;;;10.60;99.90;;;;;;5042117;28;20185;-72
2021/11/10 12:05:18;;;;;;;25.23;14.10;;;10.50;99.90;;;;;;5054482;28;20448;-70
2021/11/10 12:07:52;;;;;;;24.73;13.03;;;10.50;99.90;;;;;;5040629;28;20225;-71
2021/11/10 12:10:37;;;;;;;25.97;13.10;;;10.60;99.90;;;;;;5042863;28;20211;-71
2021/11/10 12:13:20;;;;;;;20.90;11.80;;;10.60;99.90;;;;;;5037818;28;20239;-72
2021/11/10 12:16:17;;;;;;;31.60;15.00;;;10.60;99.90;;;;;;5040748;28;20202;-71
2021/11/10 12:19:06;;;;;;;31.23;15.73;;;10.60;99.90;;;;;;5039611;28;20199;-71
2021/11/10 12:21:40;;;;;;;28.97;14.47;;;10.60;99.90;;;;;;5040184;28;20300;-71
2021/11/10 12:24:14;;;;;;;32.13;16.47;;;10.60;99.90;;;;;;5037167;28;20253;-72
2021/11/10 12:27:10;;;;;;;36.40;17.07;;;10.60;99.90;;;;;;5036126;28;20224;-72
2021/11/10 12:29:59;;;;;;;38.30;18.10;;;10.60;99.90;;;;;;5037803;28;20230;-71
2021/11/10 12:32:46;;;;;;;31.53;15.10;;;10.50;99.90;;;;;;5043435;28;20225;-72
2021/11/10 12:35:24;;;;;;;30.37;15.53;;;10.40;99.90;;;;;;5034330;28;20204;-71
2021/11/10 12:37:54;;;;;;;23.47;13.33;;;10.40;99.90;;;;;;5045361;28;20211;-71
2021/11/10 12:40:23;;;;;;;26.53;14.10;;;10.40;99.90;;;;;;5045889;28;20572;-71
2021/11/10 12:42:55;;;;;;;27.37;13.33;;;10.40;99.90;;;;;;5046849;28;20218;-71
2021/11/10 12:45:29;;;;;;;24.73;13.07;;;10.40;99.90;;;;;;5037514;28;20213;-71
2021/11/10 12:48:00;;;;;;;24.17;12.47;;;10.40;99.90;;;;;;5046165;28;20207;-74
2021/11/10 12:50:34;;;;;;;21.73;11.43;;;10.40;99.90;;;;;;5048032;28;20205;-72